Time;durP1;ratioP1;P1;durP2;ratioP2;P2;SDS_P1;SDS_P2;PMS_P1;PMS_P2;Temp;Humidity;BMP_temperature;BMP_pressure;BME280_temperature;BME280_humidity;BME280_pressure;Samples;Min_cycle;Max_cycle;Signal;HPM_P1;HPM_P2
2022/09/05 00:00:24;;;;;;;7.18;5.38;;;18.90;96.90;;;;;;5038687;28;20067;-49
2022/09/05 00:02:59;;;;;;;7.65;5.13;;;18.80;96.90;;;;;;5039528;28;20057;-49
2022/09/05 00:05:50;;;;;;;6.90;5.35;;;18.80;97.00;;;;;;5018133;28;20049;-47
2022/09/05 00:08:29;;;;;;;7.10;5.18;;;18.80;97.10;;;;;;5036655;28;20056;-48
2022/09/05 00:11:07;;;;;;;6.53;5.60;;;18.70;97.10;;;;;;5037793;28;20526;-47
2022/09/05 00:13:44;;;;;;;5.65;5.15;;;18.70;97.20;;;;;;5039680;28;20049;-48
2022/09/05 00:16:25;;;;;;;8.30;5.80;;;18.70;97.30;;;;;;5040223;28;20056;-49
2022/09/05 00:19:35;;;;;;;7.85;5.35;;;18.60;97.40;;;;;;5035153;28;20145;-46
2022/09/05 00:22:09;;;;;;;6.32;5.72;;;18.60;97.50;;;;;;4960911;28;20059;-48
2022/09/05 00:24:56;;;;;;;6.75;5.38;;;18.60;97.50;;;;;;4962977;28;20436;-48
2022/09/05 00:27:36;;;;;;;6.13;5.30;;;18.60;97.60;;;;;;4963138;28;20541;-49
2022/09/05 00:30:02;;;;;;;6.10;5.30;;;18.50;97.50;;;;;;4951754;28;20160;-49
2022/09/05 00:32:49;;;;;;;6.85;5.70;;;18.50;97.50;;;;;;4960757;28;20516;-46
2022/09/05 00:35:27;;;;;;;6.30;5.70;;;18.40;97.70;;;;;;4961598;28;20062;-47
2022/09/05 00:37:54;;;;;;;6.07;4.85;;;18.40;97.80;;;;;;4961392;28;20524;-47
2022/09/05 00:40:36;;;;;;;8.75;5.70;;;18.40;97.80;;;;;;4959990;28;20064;-48
2022/09/05 00:43:07;;;;;;;9.18;5.90;;;18.40;97.80;;;;;;4945210;28;20059;-48
2022/09/05 00:45:43;;;;;;;5.75;5.25;;;18.30;97.90;;;;;;4960549;28;20304;-46
2022/09/05 00:48:36;;;;;;;6.50;5.97;;;18.30;97.90;;;;;;4959672;28;20149;-48
2022/09/05 00:51:16;;;;;;;6.28;5.78;;;18.30;97.90;;;;;;4959480;28;20098;-47
2022/09/05 00:53:58;;;;;;;8.20;5.80;;;18.30;97.90;;;;;;4960826;28;20062;-47
2022/09/05 00:56:44;;;;;;;6.30;5.70;;;18.20;98.00;;;;;;5018806;28;20087;-49
2022/09/05 00:59:35;;;;;;;7.40;6.65;;;18.20;98.00;;;;;;5043072;28;20051;-47
2022/09/05 01:02:10;;;;;;;6.18;5.57;;;18.20;98.10;;;;;;5041610;28;20500;-47
2022/09/05 01:05:24;;;;;;;7.22;6.32;;;18.20;98.10;;;;;;5042041;28;20052;-47
2022/09/05 01:08:17;;;;;;;6.78;5.68;;;18.10;98.10;;;;;;4960400;28;20054;-47
2022/09/05 01:11:00;;;;;;;7.60;6.47;;;18.10;98.30;;;;;;4959266;28;20053;-48
2022/09/05 01:13:58;;;;;;;7.20;6.50;;;18.10;98.30;;;;;;4960722;28;20466;-48
2022/09/05 01:16:44;;;;;;;7.47;6.45;;;18.00;98.30;;;;;;4960755;28;20102;-46
2022/09/05 01:19:37;;;;;;;7.18;6.07;;;18.00;98.30;;;;;;4960886;28;20565;-46
2022/09/05 01:22:49;;;;;;;6.45;5.72;;;18.00;98.40;;;;;;4959973;28;20061;-48
2022/09/05 01:25:26;;;;;;;7.18;6.07;;;18.00;98.50;;;;;;4951204;28;20058;-48
2022/09/05 01:28:13;;;;;;;8.50;6.18;;;17.90;98.50;;;;;;4943422;28;20066;-48
2022/09/05 01:30:44;;;;;;;7.18;6.05;;;17.90;98.50;;;;;;4959920;28;20057;-47
2022/09/05 01:33:37;;;;;;;7.90;6.40;;;17.90;98.70;;;;;;4961287;28;20116;-45
2022/09/05 01:36:33;;;;;;;7.32;6.35;;;17.80;98.70;;;;;;4961136;28;20163;-46
2022/09/05 01:39:02;;;;;;;8.55;5.90;;;17.80;98.70;;;;;;4961623;28;20063;-49
2022/09/05 01:42:20;;;;;;;7.05;6.35;;;17.80;98.70;;;;;;4986626;28;20139;-47
2022/09/05 01:45:17;;;;;;;7.53;6.75;;;17.80;98.80;;;;;;4961626;28;20081;-49
2022/09/05 01:47:48;;;;;;;8.70;7.13;;;17.70;99.00;;;;;;4963582;28;20109;-47
2022/09/05 01:50:40;;;;;;;9.80;7.70;;;17.60;99.00;;;;;;4960960;28;20061;-48
2022/09/05 01:53:31;;;;;;;7.15;6.45;;;17.60;99.30;;;;;;4883444;29;20064;-50
2022/09/05 01:56:33;;;;;;;7.78;6.97;;;17.50;99.60;;;;;;4875229;29;20055;-47
2022/09/05 01:59:23;;;;;;;10.40;7.13;;;17.40;99.60;;;;;;4883085;29;20500;-49
2022/09/05 02:02:10;;;;;;;7.15;6.45;;;17.40;99.70;;;;;;4878083;29;20188;-46
2022/09/05 02:04:49;;;;;;;7.20;6.55;;;17.30;99.70;;;;;;4872437;29;20063;-48
2022/09/05 02:07:20;;;;;;;9.40;7.03;;;17.30;99.70;;;;;;4864420;29;20069;-48
2022/09/05 02:10:46;;;;;;;7.40;6.68;;;17.30;99.80;;;;;;4865033;29;20098;-50
2022/09/05 02:13:33;;;;;;;7.78;6.75;;;17.30;99.80;;;;;;4776704;29;20149;-46
2022/09/05 02:16:05;;;;;;;8.38;7.47;;;17.30;99.90;;;;;;4791213;29;20069;-46
2022/09/05 02:18:44;;;;;;;7.82;7.00;;;17.20;99.90;;;;;;4791643;29;20051;-49
2022/09/05 02:21:24;;;;;;;8.20;7.50;;;17.20;99.90;;;;;;4833788;29;20545;-47
2022/09/05 02:24:12;;;;;;;8.13;7.20;;;17.20;99.90;;;;;;4863879;29;20064;-46
2022/09/05 02:26:56;;;;;;;10.02;8.13;;;17.20;99.90;;;;;;4858446;29;20057;-48
2022/09/05 02:29:29;;;;;;;7.70;6.95;;;17.20;99.90;;;;;;4868147;29;20055;-47
2022/09/05 02:32:07;;;;;;;9.00;7.53;;;17.20;99.90;;;;;;4939553;29;20058;-48
2022/09/05 02:35:05;;;;;;;8.20;7.57;;;17.10;99.90;;;;;;4937857;29;20055;-49
2022/09/05 02:37:41;;;;;;;7.90;7.28;;;17.10;99.90;;;;;;4937890;29;20063;-46
2022/09/05 02:40:38;;;;;;;8.13;7.38;;;17.10;99.90;;;;;;4935463;28;20158;-46
2022/09/05 02:43:18;;;;;;;8.77;7.93;;;17.00;99.90;;;;;;4930739;29;20051;-47
2022/09/05 02:46:13;;;;;;;8.35;7.55;;;17.00;99.90;;;;;;4932230;29;20055;-47
2022/09/05 02:48:48;;;;;;;7.53;6.70;;;16.90;99.90;;;;;;5002000;28;20050;-47
2022/09/05 02:51:42;;;;;;;8.25;7.55;;;16.90;99.90;;;;;;5001216;28;20049;-47
2022/09/05 02:54:13;;;;;;;8.05;7.38;;;17.00;99.90;;;;;;4982869;28;20054;-46
2022/09/05 02:57:15;;;;;;;8.38;7.57;;;16.90;99.90;;;;;;4997534;28;20456;-46
2022/09/05 02:59:49;;;;;;;9.20;7.68;;;16.90;99.90;;;;;;4995824;28;20488;-46
2022/09/05 03:02:22;;;;;;;8.48;7.65;;;16.90;99.90;;;;;;5001030;28;20045;-48
2022/09/05 03:05:19;;;;;;;8.80;7.38;;;16.90;99.90;;;;;;5000601;28;20061;-45
2022/09/05 03:08:09;;;;;;;11.88;7.57;;;16.90;99.90;;;;;;4996160;28;20065;-48
2022/09/05 03:10:50;;;;;;;7.85;7.15;;;16.80;99.90;;;;;;4993717;28;20156;-46
2022/09/05 03:13:48;;;;;;;8.75;7.95;;;16.80;99.90;;;;;;5001944;28;20050;-50
2022/09/05 03:17:08;;;;;;;10.32;8.25;;;16.80;99.90;;;;;;5000344;28;20085;-45
2022/09/05 03:19:45;;;;;;;8.20;7.40;;;16.80;99.90;;;;;;4952250;28;20050;-45
2022/09/05 03:22:31;;;;;;;9.57;7.28;;;16.80;99.90;;;;;;4948014;28;20057;-47
2022/09/05 03:25:24;;;;;;;8.80;8.00;;;16.70;99.90;;;;;;4956770;28;20059;-47
2022/09/05 03:27:55;;;;;;;8.98;7.85;;;16.70;99.90;;;;;;4954381;28;20058;-47
2022/09/05 03:30:54;;;;;;;8.35;7.60;;;16.70;99.90;;;;;;4957707;28;20574;-47
2022/09/05 03:33:47;;;;;;;9.52;8.52;;;16.70;99.90;;;;;;4959189;28;20425;-45
2022/09/05 03:36:24;;;;;;;11.35;8.95;;;16.60;99.90;;;;;;4956256;28;20054;-46
2022/09/05 03:39:26;;;;;;;9.48;8.52;;;16.70;99.90;;;;;;4946161;28;20047;-45
2022/09/05 03:42:28;;;;;;;8.80;7.90;;;16.60;99.90;;;;;;4938242;29;20055;-47
2022/09/05 03:45:11;;;;;;;8.85;7.97;;;16.60;99.90;;;;;;4950825;28;20061;-45
2022/09/05 03:47:43;;;;;;;10.35;8.43;;;16.60;99.90;;;;;;4956833;28;20063;-45
2022/09/05 03:50:40;;;;;;;10.45;9.40;;;16.60;99.90;;;;;;4956126;28;20054;-46
2022/09/05 03:53:27;;;;;;;9.95;9.10;;;16.60;99.90;;;;;;4964539;28;20119;-46
2022/09/05 03:56:30;;;;;;;9.52;8.73;;;16.50;99.90;;;;;;5022647;28;20206;-45
2022/09/05 03:59:12;;;;;;;10.02;9.27;;;16.50;99.90;;;;;;5023832;28;20199;-46
2022/09/05 04:01:46;;;;;;;9.57;8.65;;;16.40;99.90;;;;;;5021130;28;20523;-47
2022/09/05 04:04:41;;;;;;;9.80;8.90;;;16.40;99.90;;;;;;5024194;28;20049;-47
2022/09/05 04:07:25;;;;;;;10.45;9.07;;;16.40;99.90;;;;;;4981863;28;20065;-47
2022/09/05 04:10:02;;;;;;;10.63;9.52;;;16.30;99.90;;;;;;4981115;28;20589;-45
2022/09/05 04:12:31;;;;;;;10.68;9.60;;;16.30;99.90;;;;;;4981734;28;20054;-47
2022/09/05 04:15:25;;;;;;;12.25;9.68;;;16.30;99.90;;;;;;4981800;28;20046;-45
2022/09/05 04:18:09;;;;;;;10.68;9.70;;;16.30;99.90;;;;;;4981213;28;20058;-45
2022/09/05 04:20:54;;;;;;;10.40;9.48;;;16.30;99.90;;;;;;4976961;28;20609;-46
2022/09/05 04:23:52;;;;;;;11.52;8.98;;;16.30;99.90;;;;;;4979664;28;20054;-45
2022/09/05 04:26:29;;;;;;;10.85;9.50;;;16.30;99.90;;;;;;4981910;28;20092;-46
2022/09/05 04:29:02;;;;;;;10.25;9.15;;;16.20;99.90;;;;;;4984512;28;20050;-45
2022/09/05 04:31:45;;;;;;;13.18;9.45;;;16.20;99.90;;;;;;4981610;28;20489;-45
2022/09/05 04:34:50;;;;;;;10.00;9.10;;;16.30;99.90;;;;;;4981711;28;20050;-46
2022/09/05 04:37:39;;;;;;;11.85;10.05;;;16.20;99.90;;;;;;4907731;29;20066;-45
2022/09/05 04:40:29;;;;;;;11.95;9.20;;;16.20;99.90;;;;;;4921929;29;20083;-45
2022/09/05 04:43:21;;;;;;;10.95;9.85;;;16.20;99.90;;;;;;4930548;28;20058;-44
2022/09/05 04:46:14;;;;;;;11.98;10.95;;;16.20;99.90;;;;;;4953137;28;20059;-47
2022/09/05 04:49:24;;;;;;;12.70;10.25;;;16.10;99.90;;;;;;4960968;28;20057;-46
2022/09/05 04:52:23;;;;;;;11.07;10.02;;;16.10;99.90;;;;;;4958378;28;20054;-46
2022/09/05 04:54:56;;;;;;;10.65;9.75;;;16.10;99.90;;;;;;4954900;28;20063;-46
2022/09/05 04:57:24;;;;;;;11.05;10.15;;;16.00;99.90;;;;;;4961389;28;20050;-46
2022/09/05 04:59:53;;;;;;;12.13;10.38;;;16.10;99.90;;;;;;4959507;28;20257;-46
2022/09/05 05:02:30;;;;;;;10.55;9.65;;;16.10;99.90;;;;;;4960014;28;20074;-47
2022/09/05 05:05:10;;;;;;;13.90;10.60;;;16.10;99.90;;;;;;4960429;28;20054;-47
2022/09/05 05:07:57;;;;;;;11.63;10.07;;;16.10;99.90;;;;;;4978067;28;20144;-47
2022/09/05 05:10:46;;;;;;;11.55;10.38;;;16.10;99.90;;;;;;5021649;28;20500;-46
2022/09/05 05:13:24;;;;;;;11.52;10.52;;;16.10;99.90;;;;;;5022822;28;20050;-46
2022/09/05 05:16:00;;;;;;;10.32;9.32;;;16.10;99.90;;;;;;5022013;28;20056;-47
2022/09/05 05:18:32;;;;;;;11.00;9.95;;;16.10;99.90;;;;;;5022924;28;20467;-47
2022/09/05 05:21:16;;;;;;;11.52;10.50;;;16.10;99.90;;;;;;5022537;28;20555;-46
2022/09/05 05:24:11;;;;;;;11.77;10.57;;;16.20;99.90;;;;;;5024467;28;20040;-46
2022/09/05 05:26:56;;;;;;;11.93;10.88;;;16.30;99.90;;;;;;5042394;28;20511;-46
2022/09/05 05:29:49;;;;;;;11.32;10.18;;;16.30;99.90;;;;;;5041799;28;20049;-46
2022/09/05 05:32:27;;;;;;;11.80;10.10;;;16.40;99.90;;;;;;5041840;28;20053;-48
2022/09/05 05:34:57;;;;;;;10.77;9.75;;;16.60;99.90;;;;;;5022980;28;20928;-47
2022/09/05 05:37:43;;;;;;;10.05;8.93;;;17.10;99.90;;;;;;5041236;28;20089;-46
2022/09/05 05:40:11;;;;;;;10.38;9.38;;;17.50;99.90;;;;;;5022653;28;20497;-47
2022/09/05 05:42:39;;;;;;;10.18;9.27;;;17.90;99.90;;;;;;5041631;28;20086;-47
2022/09/05 05:45:19;;;;;;;11.77;9.05;;;18.70;99.90;;;;;;5042390;28;20092;-46
2022/09/05 05:48:17;;;;;;;10.05;9.13;;;19.80;99.90;;;;;;5036028;28;20137;-49
2022/09/05 05:51:12;;;;;;;10.20;9.20;;;21.10;98.70;;;;;;5042808;28;20111;-46
2022/09/05 05:53:55;;;;;;;11.05;9.15;;;21.90;95.50;;;;;;5042691;28;20096;-51
2022/09/05 05:57:07;;;;;;;10.05;8.98;;;22.30;96.50;;;;;;5042200;28;20053;-48
2022/09/05 05:59:59;;;;;;;9.70;8.65;;;22.70;95.60;;;;;;5009867;28;20063;-47
2022/09/05 06:02:27;;;;;;;10.00;8.98;;;23.10;94.90;;;;;;5041316;28;20157;-46
2022/09/05 06:05:02;;;;;;;8.95;7.97;;;23.40;94.60;;;;;;5041373;28;20581;-47
2022/09/05 06:08:06;;;;;;;12.73;8.25;;;24.00;93.70;;;;;;5023667;28;20060;-48
2022/09/05 06:11:13;;;;;;;10.05;8.73;;;24.50;92.90;;;;;;5040639;28;20527;-47
2022/09/05 06:14:04;;;;;;;9.23;8.43;;;25.20;92.70;;;;;;5041527;28;20060;-48
2022/09/05 06:17:08;;;;;;;9.85;8.85;;;25.90;91.50;;;;;;4943164;28;20502;-47
2022/09/05 06:20:12;;;;;;;8.98;8.07;;;26.40;90.90;;;;;;4957911;28;20050;-47
2022/09/05 06:23:01;;;;;;;9.77;8.52;;;26.20;90.10;;;;;;4941232;28;20063;-48
2022/09/05 06:26:16;;;;;;;9.73;8.68;;;26.20;90.40;;;;;;4959504;28;20050;-47
2022/09/05 06:29:00;;;;;;;10.55;8.80;;;26.40;89.70;;;;;;4921076;29;20603;-48
2022/09/05 06:32:16;;;;;;;8.90;8.10;;;26.60;90.50;;;;;;4918413;29;20055;-47
2022/09/05 06:35:09;;;;;;;9.20;8.30;;;26.50;90.00;;;;;;4864734;29;20073;-46
2022/09/05 06:37:42;;;;;;;;;;;26.60;89.30;;;;;;4866935;29;20460;-47
2022/09/05 06:40:22;;;;;;;9.18;8.38;;;26.80;89.80;;;;;;4863609;29;19964;-47
2022/09/05 06:43:08;;;;;;;9.23;8.32;;;27.20;88.60;;;;;;4863314;29;20056;-47
2022/09/05 06:45:57;;;;;;;8.23;7.43;;;27.80;89.40;;;;;;4863620;29;20339;-47
2022/09/05 06:48:45;;;;;;;12.45;8.30;;;28.30;89.20;;;;;;4846672;29;20292;-47
2022/09/05 06:51:28;;;;;;;9.52;7.85;;;28.50;87.20;;;;;;4844741;29;20719;-47
2022/09/05 06:54:12;;;;;;;8.90;8.23;;;29.00;87.30;;;;;;4881573;29;20064;-47
2022/09/05 06:56:55;;;;;;;11.27;7.65;;;28.90;88.20;;;;;;4901468;29;20143;-46
2022/09/05 06:59:39;;;;;;;8.60;7.90;;;28.90;87.40;;;;;;4900889;29;20567;-49
2022/09/05 07:02:46;;;;;;;9.57;8.63;;;28.90;86.10;;;;;;4901895;29;20091;-47
2022/09/05 07:05:30;;;;;;;8.25;7.53;;;29.10;86.40;;;;;;4901834;29;20430;-47
2022/09/05 07:08:31;;;;;;;8.18;7.43;;;29.20;85.90;;;;;;4937006;28;20062;-50
2022/09/05 07:11:39;;;;;;;8.90;7.88;;;28.50;86.50;;;;;;4924650;29;20056;-47
2022/09/05 07:14:10;;;;;;;8.48;7.78;;;27.90;89.40;;;;;;4916072;29;20062;-48
2022/09/05 07:16:49;;;;;;;9.10;7.53;;;27.50;89.70;;;;;;4920719;29;20052;-49
2022/09/05 07:19:24;;;;;;;9.10;8.10;;;27.30;89.30;;;;;;4920471;29;20639;-48
2022/09/05 07:22:40;;;;;;;9.40;7.63;;;26.80;90.00;;;;;;4921288;29;20055;-49
2022/09/05 07:25:18;;;;;;;8.52;7.85;;;26.50;90.20;;;;;;4899775;29;20056;-49
2022/09/05 07:28:09;;;;;;;8.65;7.80;;;26.10;91.10;;;;;;4925888;29;20531;-51
2022/09/05 07:30:45;;;;;;;9.30;8.45;;;26.00;91.20;;;;;;4923149;29;20067;-51
2022/09/05 07:33:15;;;;;;;9.60;8.18;;;25.80;91.30;;;;;;4930883;29;20074;-47
2022/09/05 07:35:42;;;;;;;8.85;8.13;;;25.70;91.50;;;;;;4942810;29;20067;-47
2022/09/05 07:38:19;;;;;;;9.10;8.30;;;25.90;91.50;;;;;;4942601;29;20051;-47
2022/09/05 07:41:00;;;;;;;9.05;7.93;;;25.90;91.40;;;;;;4933892;29;20142;-47
2022/09/05 07:43:34;;;;;;;9.45;8.55;;;26.00;91.70;;;;;;4925239;29;20104;-50
2022/09/05 07:46:02;;;;;;;8.98;8.05;;;26.00;91.60;;;;;;4924680;29;20384;-48
2022/09/05 07:48:40;;;;;;;9.52;8.65;;;26.00;91.60;;;;;;4989011;28;20064;-47
2022/09/05 07:51:12;;;;;;;9.25;8.45;;;25.80;91.70;;;;;;5010702;28;20176;-47
2022/09/05 07:53:41;;;;;;;10.35;9.35;;;25.70;91.90;;;;;;5043851;28;20380;-48
2022/09/05 07:56:09;;;;;;;9.98;9.18;;;25.60;91.90;;;;;;5043812;28;20090;-46
2022/09/05 07:58:50;;;;;;;9.63;8.73;;;25.40;92.00;;;;;;5044047;28;20061;-47
2022/09/05 08:01:20;;;;;;;9.27;8.32;;;25.40;92.50;;;;;;5043912;28;20500;-46
2022/09/05 08:03:54;;;;;;;9.82;9.02;;;25.30;92.60;;;;;;5026844;28;20057;-48
2022/09/05 08:06:24;;;;;;;10.57;9.57;;;25.40;92.70;;;;;;5044869;28;20044;-48
2022/09/05 08:08:55;;;;;;;9.73;8.95;;;25.50;92.20;;;;;;5044447;28;20060;-47
2022/09/05 08:11:24;;;;;;;10.68;9.45;;;25.60;92.30;;;;;;5043767;28;20102;-47
2022/09/05 08:14:16;;;;;;;10.27;9.48;;;25.60;92.20;;;;;;5043746;28;20142;-49
2022/09/05 08:16:42;;;;;;;10.30;9.30;;;25.70;93.10;;;;;;4962098;28;20360;-47
2022/09/05 08:19:35;;;;;;;10.43;8.70;;;25.60;92.70;;;;;;4962589;28;20065;-51
2022/09/05 08:22:02;;;;;;;9.50;8.60;;;25.70;93.40;;;;;;4964168;28;20149;-47
2022/09/05 08:24:43;;;;;;;13.27;9.32;;;25.70;93.30;;;;;;4963494;28;20454;-48
2022/09/05 08:27:16;;;;;;;8.00;7.35;;;25.90;92.80;;;;;;4963416;28;20525;-50
2022/09/05 08:30:00;;;;;;;8.88;8.07;;;26.00;93.20;;;;;;4947957;28;20824;-49
2022/09/05 08:32:37;;;;;;;10.73;7.85;;;26.20;92.70;;;;;;4962606;28;20215;-47
2022/09/05 08:35:13;;;;;;;8.63;7.75;;;26.20;92.90;;;;;;4962290;28;20066;-53
2022/09/05 08:37:42;;;;;;;9.57;8.07;;;26.10;93.20;;;;;;4963369;28;20155;-48
2022/09/05 08:40:37;;;;;;;10.45;7.70;;;26.20;92.70;;;;;;4964780;28;20100;-54
2022/09/05 08:43:42;;;;;;;9.45;8.10;;;26.30;93.30;;;;;;4953665;28;20120;-54
2022/09/05 08:46:26;;;;;;;9.63;8.60;;;26.40;92.60;;;;;;4946364;28;20062;-50
2022/09/05 08:49:06;;;;;;;8.90;8.10;;;26.50;92.70;;;;;;4961643;28;20051;-51
2022/09/05 08:51:40;;;;;;;9.48;8.48;;;26.50;92.50;;;;;;4960988;28;20723;-51
2022/09/05 08:54:18;;;;;;;8.25;7.60;;;26.50;92.50;;;;;;5019858;28;20057;-50
2022/09/05 08:57:03;;;;;;;11.65;8.18;;;26.60;92.50;;;;;;5043474;28;20162;-49
2022/09/05 08:59:38;;;;;;;9.25;7.07;;;26.70;92.50;;;;;;5042808;28;20511;-51
2022/09/05 09:02:38;;;;;;;9.20;8.30;;;26.80;92.90;;;;;;5040862;28;20415;-50
2022/09/05 09:05:23;;;;;;;9.40;8.00;;;26.90;92.30;;;;;;5044056;28;20078;-50
2022/09/05 09:08:01;;;;;;;12.25;7.43;;;26.90;92.40;;;;;;5043395;28;20511;-49
2022/09/05 09:10:45;;;;;;;11.60;7.47;;;27.10;92.30;;;;;;5042479;28;20130;-51
2022/09/05 09:13:53;;;;;;;8.25;7.03;;;27.30;92.00;;;;;;5043253;28;20515;-48
2022/09/05 09:16:39;;;;;;;10.75;7.78;;;27.30;91.90;;;;;;4961619;28;20043;-50
2022/09/05 09:19:07;;;;;;;8.32;6.93;;;27.40;93.00;;;;;;4959895;28;20059;-52
2022/09/05 09:21:47;;;;;;;8.13;6.35;;;27.50;92.10;;;;;;4959677;28;20051;-50
2022/09/05 09:24:13;;;;;;;12.80;9.63;;;27.70;91.70;;;;;;4961862;28;20065;-52
2022/09/05 09:27:20;;;;;;;9.65;6.80;;;27.80;92.30;;;;;;4961013;28;20047;-49
2022/09/05 09:29:46;;;;;;;6.45;5.82;;;27.90;92.00;;;;;;4891490;29;20392;-49
2022/09/05 09:32:23;;;;;;;14.90;7.03;;;27.90;91.70;;;;;;4900296;29;20063;-52
2022/09/05 09:34:55;;;;;;;8.45;5.93;;;28.00;92.10;;;;;;4884210;29;20152;-49
2022/09/05 09:37:56;;;;;;;8.18;5.82;;;28.10;92.00;;;;;;4885188;29;20403;-49
2022/09/05 09:40:47;;;;;;;5.72;5.20;;;28.20;91.70;;;;;;4847221;29;20049;-50
2022/09/05 09:43:13;;;;;;;6.28;5.68;;;28.20;91.70;;;;;;4839263;29;20088;-48
2022/09/05 09:45:44;;;;;;;31.05;8.23;;;28.30;91.30;;;;;;4847175;29;20477;-50
2022/09/05 09:48:15;;;;;;;13.20;8.15;;;28.30;91.50;;;;;;4847909;29;20045;-51
2022/09/05 09:51:21;;;;;;;9.40;5.55;;;28.40;91.30;;;;;;4896062;29;20472;-52
2022/09/05 09:54:36;;;;;;;7.15;6.35;;;28.60;91.50;;;;;;4904960;29;20063;-48
2022/09/05 09:57:08;;;;;;;9.30;6.72;;;28.60;90.80;;;;;;4865293;29;20065;-49
2022/09/05 10:00:03;;;;;;;10.02;6.25;;;28.80;90.80;;;;;;4868040;29;20057;-49
2022/09/05 10:02:47;;;;;;;6.13;5.63;;;28.80;91.30;;;;;;4866140;29;20063;-50
2022/09/05 10:05:40;;;;;;;6.97;5.78;;;28.80;90.30;;;;;;4852858;29;20060;-52
2022/09/05 10:08:06;;;;;;;;;;;28.80;89.70;;;;;;4868117;29;20061;-51
2022/09/05 10:10:48;;;;;;;6.65;4.47;;;28.80;90.10;;;;;;4867024;29;19935;-53
2022/09/05 10:13:16;;;;;;;5.78;4.28;;;28.80;90.60;;;;;;4866500;29;20092;-54
2022/09/05 10:16:23;;;;;;;6.13;5.00;;;28.80;90.70;;;;;;4879856;29;20060;-55
2022/09/05 10:18:53;;;;;;;4.95;4.55;;;28.90;90.50;;;;;;4884907;29;20092;-56
2022/09/05 10:21:57;;;;;;;7.40;4.85;;;29.00;90.30;;;;;;4886633;29;20099;-51
2022/09/05 10:25:04;;;;;;;6.93;4.70;;;29.10;90.00;;;;;;4875464;29;20061;-49
2022/09/05 10:27:48;;;;;;;5.60;4.82;;;29.10;89.70;;;;;;4883685;29;20053;-51
2022/09/05 10:30:27;;;;;;;8.48;4.80;;;29.10;89.10;;;;;;4890772;29;20059;-53
2022/09/05 10:33:23;;;;;;;7.13;4.97;;;29.10;89.80;;;;;;4917865;28;20462;-50
2022/09/05 10:35:56;;;;;;;4.93;4.40;;;29.20;89.70;;;;;;4977527;28;20062;-50
2022/09/05 10:38:39;;;;;;;5.55;3.50;;;29.20;88.80;;;;;;4989385;28;20053;-52
2022/09/05 10:41:18;;;;;;;4.60;3.72;;;29.30;88.30;;;;;;4980724;28;20058;-53
2022/09/05 10:44:00;;;;;;;7.45;4.10;;;29.20;89.00;;;;;;4979123;28;20057;-50
2022/09/05 10:46:31;;;;;;;4.33;3.73;;;29.40;88.00;;;;;;4971780;28;20064;-52
2022/09/05 10:49:07;;;;;;;7.15;3.60;;;29.30;87.90;;;;;;4980180;28;20054;-50
2022/09/05 10:51:58;;;;;;;5.35;4.18;;;29.20;87.80;;;;;;4979740;28;20094;-54
2022/09/05 10:55:02;;;;;;;5.30;3.53;;;29.30;88.70;;;;;;4985911;28;20556;-54
2022/09/05 10:57:40;;;;;;;6.80;3.33;;;29.40;88.70;;;;;;5024688;28;20411;-52
2022/09/05 11:00:20;;;;;;;4.63;3.60;;;29.50;88.20;;;;;;5023683;28;20058;-53
2022/09/05 11:02:52;;;;;;;4.85;3.53;;;29.60;88.10;;;;;;5023339;28;20594;-49
2022/09/05 11:05:27;;;;;;;4.63;4.13;;;29.50;86.40;;;;;;5023174;28;20072;-51
2022/09/05 11:08:09;;;;;;;5.60;3.10;;;29.60;87.10;;;;;;5023483;28;20287;-53
2022/09/05 11:10:57;;;;;;;4.93;3.88;;;29.70;86.60;;;;;;5023332;28;20045;-53
2022/09/05 11:13:45;;;;;;;5.28;3.33;;;29.80;85.00;;;;;;5022805;28;20073;-52
2022/09/05 11:16:48;;;;;;;5.95;3.67;;;29.80;86.60;;;;;;5023844;28;20484;-54
2022/09/05 11:19:24;;;;;;;5.93;3.60;;;29.80;85.40;;;;;;5024340;28;20390;-53
2022/09/05 11:22:01;;;;;;;4.22;3.60;;;29.80;84.90;;;;;;5025097;28;20083;-54
2022/09/05 11:24:49;;;;;;;5.38;4.10;;;29.80;84.70;;;;;;5024348;28;20135;-54
2022/09/05 11:27:44;;;;;;;4.50;3.40;;;29.70;86.70;;;;;;5023983;28;20053;-53
2022/09/05 11:30:17;;;;;;;5.00;3.38;;;29.80;86.30;;;;;;5021529;28;20092;-51
2022/09/05 11:33:19;;;;;;;4.78;3.55;;;29.90;85.40;;;;;;5024319;28;20053;-54
2022/09/05 11:35:52;;;;;;;4.05;3.30;;;30.10;83.70;;;;;;5024187;28;20069;-53
2022/09/05 11:38:28;;;;;;;;;;;30.10;85.10;;;;;;5020981;28;20049;-53
2022/09/05 11:41:37;;;;;;;4.05;2.72;;;30.10;84.70;;;;;;5009961;28;20386;-55
2022/09/05 11:44:27;;;;;;;4.07;3.58;;;29.80;83.90;;;;;;5023762;28;20065;-54
2022/09/05 11:47:04;;;;;;;4.03;3.45;;;29.60;84.60;;;;;;5023694;28;20056;-54
2022/09/05 11:49:49;;;;;;;3.90;3.50;;;29.60;85.60;;;;;;5021534;28;20049;-54
2022/09/05 11:52:20;;;;;;;3.72;3.33;;;29.80;86.20;;;;;;5038318;28;20061;-56
2022/09/05 11:55:01;;;;;;;3.90;3.13;;;30.00;84.90;;;;;;5027176;28;20483;-57
2022/09/05 11:58:21;;;;;;;3.88;2.95;;;30.20;84.30;;;;;;5043545;28;20126;-54
2022/09/05 12:01:27;;;;;;;4.28;3.40;;;30.10;83.10;;;;;;4979128;28;20594;-53
2022/09/05 12:04:28;;;;;;;3.65;2.90;;;30.00;83.40;;;;;;4965299;28;20061;-54
2022/09/05 12:07:07;;;;;;;3.72;2.80;;;29.80;84.80;;;;;;4942743;28;20190;-55
2022/09/05 12:10:00;;;;;;;3.67;2.20;;;29.60;83.20;;;;;;4939747;28;20056;-54
2022/09/05 12:12:58;;;;;;;4.32;2.63;;;29.50;83.60;;;;;;4943762;28;20585;-54
2022/09/05 12:15:32;;;;;;;4.15;2.92;;;29.40;84.20;;;;;;4872005;29;20532;-54
2022/09/05 12:18:10;;;;;;;5.20;2.30;;;29.30;84.50;;;;;;4871258;29;20068;-54
2022/09/05 12:20:51;;;;;;;4.03;2.28;;;29.30;83.70;;;;;;4871389;29;20053;-54
2022/09/05 12:23:35;;;;;;;4.35;2.30;;;29.30;83.00;;;;;;4871494;29;20056;-53
2022/09/05 12:26:27;;;;;;;5.35;2.78;;;29.40;83.30;;;;;;4871120;29;20064;-53
2022/09/05 12:29:07;;;;;;;2.95;2.63;;;29.50;81.90;;;;;;4854752;29;20509;-54
2022/09/05 12:31:49;;;;;;;8.40;2.15;;;29.50;81.90;;;;;;4870704;29;21054;-53
2022/09/05 12:34:48;;;;;;;2.60;2.28;;;29.60;83.70;;;;;;4884855;29;20064;-54
2022/09/05 12:37:47;;;;;;;4.40;2.03;;;29.60;82.20;;;;;;4906943;29;20056;-53
2022/09/05 12:40:33;;;;;;;2.90;2.30;;;29.80;81.90;;;;;;4851175;29;20509;-54
2022/09/05 12:43:07;;;;;;;3.33;2.53;;;29.90;81.60;;;;;;4863659;29;20065;-53
2022/09/05 12:45:57;;;;;;;3.88;2.50;;;30.00;81.60;;;;;;4888549;29;20067;-55
2022/09/05 12:48:23;;;;;;;3.35;2.50;;;30.20;81.70;;;;;;4888064;29;20056;-54
2022/09/05 12:50:56;;;;;;;5.38;2.60;;;30.20;81.00;;;;;;4893549;29;20535;-52
2022/09/05 12:53:24;;;;;;;6.78;2.70;;;30.20;81.50;;;;;;4945341;29;20923;-54
2022/09/05 12:55:56;;;;;;;3.08;2.40;;;30.20;83.20;;;;;;4929554;29;20054;-53
2022/09/05 12:58:22;;;;;;;;;;;30.10;80.60;;;;;;4946071;29;20106;-50
2022/09/05 13:00:49;;;;;;;2.95;2.40;;;30.10;79.90;;;;;;4935701;29;20377;-53
2022/09/05 13:03:47;;;;;;;7.15;2.80;;;30.10;78.90;;;;;;4945080;29;20526;-55
2022/09/05 13:06:21;;;;;;;4.72;2.47;;;30.20;78.30;;;;;;4945482;29;20055;-55
2022/09/05 13:08:51;;;;;;;5.07;2.60;;;30.10;80.80;;;;;;4929127;29;20047;-53
2022/09/05 13:11:20;;;;;;;5.45;2.55;;;29.90;78.70;;;;;;4945088;29;20066;-54
2022/09/05 13:14:04;;;;;;;3.72;2.50;;;29.80;80.90;;;;;;4945281;29;20059;-54
2022/09/05 13:16:31;;;;;;;3.08;2.42;;;29.60;80.90;;;;;;4979051;28;20054;-53
2022/09/05 13:19:06;;;;;;;3.63;2.70;;;29.50;81.60;;;;;;5026817;28;20101;-54
2022/09/05 13:21:39;;;;;;;3.42;2.50;;;29.60;82.40;;;;;;5026554;28;20080;-55
2022/09/05 13:24:11;;;;;;;4.38;2.80;;;29.80;80.80;;;;;;5023612;28;20449;-54
2022/09/05 13:26:55;;;;;;;3.75;3.08;;;29.90;82.50;;;;;;5025287;28;20463;-53
2022/09/05 13:29:50;;;;;;;4.75;2.75;;;30.00;80.60;;;;;;5025891;28;20067;-54
2022/09/05 13:32:19;;;;;;;5.22;3.00;;;30.10;81.90;;;;;;5019587;28;20057;-55
2022/09/05 13:34:51;;;;;;;5.25;2.80;;;30.20;80.90;;;;;;5026568;28;20103;-54
2022/09/05 13:37:28;;;;;;;6.22;3.00;;;30.30;80.60;;;;;;5025427;28;20041;-57
2022/09/05 13:39:58;;;;;;;2.40;2.00;;;30.30;81.20;;;;;;5026166;28;20045;-55
2022/09/05 13:42:31;;;;;;;3.05;1.80;;;30.30;78.90;;;;;;5024579;28;20488;-54
2022/09/05 13:44:59;;;;;;;2.92;2.00;;;30.40;77.30;;;;;;5024428;28;20089;-54
2022/09/05 13:47:44;;;;;;;3.17;2.30;;;30.40;78.70;;;;;;5023645;28;20111;-52
2022/09/05 13:50:36;;;;;;;3.15;2.13;;;30.40;79.50;;;;;;5014530;28;20045;-53
2022/09/05 13:53:11;;;;;;;4.25;2.50;;;30.40;79.10;;;;;;5026233;28;20393;-53
2022/09/05 13:55:52;;;;;;;3.47;2.13;;;30.40;77.60;;;;;;5034551;28;20045;-53
2022/09/05 13:58:44;;;;;;;6.93;2.10;;;30.40;77.90;;;;;;5038893;28;21539;-55
2022/09/05 14:01:11;;;;;;;2.97;2.03;;;30.60;77.50;;;;;;5029350;28;20051;-54
2022/09/05 14:04:25;;;;;;;3.65;2.00;;;30.60;77.00;;;;;;5009877;28;20061;-56
2022/09/05 14:07:00;;;;;;;5.97;2.78;;;30.60;76.50;;;;;;4964964;28;20643;-54
2022/09/05 14:10:05;;;;;;;4.25;2.38;;;30.30;78.00;;;;;;4983475;28;20096;-55
2022/09/05 14:12:40;;;;;;;4.68;2.22;;;30.00;78.70;;;;;;4983653;28;20084;-55